Skip Navigation LinksHome page > Weather > Current weather Skip Navigation Links

Current Weather

Kenosha Regional, Kenosha, Wis.

For information only: do not use for flight planning or navigation.
Latest weather
Observation time Wednesday, October 27, 2021 1:16 AM CDT
Local time Wednesday, October 27, 2021 1:38 AM CDT
Flight conditions Marginal Visual Meteorological Conditions
Winds
Wind direction West (270°)
Wind speed 3 mph
Visibility 10 mi.
Sky condition
Ceiling 2,400 ft. broken clouds
Cloud layer broken clouds 2,400 ft.
Temperature 39°F
Dewpoint 35°F
Altimeter 30.03 in.Hg
Derived measurements
Relative humidity 86%
Wind chill 37°F
Density altitude -624 ft.
Remarks
Special weather observation.
Fully automated report.
Automated weather observing station with precipitation discriminator.
METAR SPUS70 KWBC 270620 SPECI KENW 270616Z AUTO 27003KT 10SM BKN024 04/02 A3003 RMK AO2 T00390017

Settings

Location code

InnerDrive.Weather 4.0.6770.0 Release CLR 4.0.30319.42000
Copyright ©2018 Inner Drive Technology. All rights reserved. Portions Copyright ©1986-2018 David Braverman.

Find weather

Site navigation


Skip Navigation Links

Place info

Page info

PayPal - The safer, easier way to pay online!

Return home.

Copyright ©2021 Inner Drive Technology. Purveyors of fine, hand-crafted computer software. Page printed 2021-10-27T06:38:57 UTC.